Time;durP1;ratioP1;P1;durP2;ratioP2;P2;SDS_P1;SDS_P2;PMS_P1;PMS_P2;Temp;Humidity;BMP_temperature;BMP_pressure;BME280_temperature;BME280_humidity;BME280_pressure;Samples;Min_cycle;Max_cycle;Signal;HPM_P1;HPM_P2
2021/11/23 00:00:55;;;;;;;6.42;4.42;;;;;;;1.51;66.13;100085.64;1653570;83;21402;-71
2021/11/23 00:03:21;;;;;;;6.05;3.45;;;;;;;1.45;66.22;100085.03;1667379;85;21115;-71
2021/11/23 00:05:48;;;;;;;7.87;4.05;;;;;;;1.38;66.28;100082.31;1718777;82;21873;-70
2021/11/23 00:08:15;;;;;;;5.95;3.70;;;;;;;1.31;66.48;100084.02;1737012;82;21117;-72
2021/11/23 00:10:43;;;;;;;5.20;3.35;;;;;;;1.31;66.55;100085.34;1735864;82;21556;-70
2021/11/23 00:13:10;;;;;;;5.05;3.67;;;;;;;1.28;66.63;100085.72;1716409;82;21002;-70
2021/11/23 00:15:37;;;;;;;6.70;3.87;;;;;;;1.24;66.76;100084.44;1711254;82;21562;-70
2021/11/23 00:18:08;;;;;;;10.50;5.45;;;;;;;1.16;66.95;100087.14;1690422;82;21013;-72
2021/11/23 00:20:35;;;;;;;7.03;3.93;;;;;;;1.05;67.38;100095.03;1662493;85;21275;-75
2021/11/23 00:23:03;;;;;;;12.40;4.77;;;;;;;1.02;67.58;100097.20;1698960;84;21485;-74
2021/11/23 00:25:31;;;;;;;7.77;5.03;;;;;;;1.02;67.69;100090.08;1738626;80;20977;-74
2021/11/23 00:27:58;;;;;;;5.93;4.40;;;;;;;1.02;67.87;100094.55;1756818;81;21028;-75
2021/11/23 00:30:25;;;;;;;6.23;4.10;;;;;;;0.95;68.06;100100.25;1757015;81;20961;-77
2021/11/23 00:32:56;;;;;;;11.13;5.13;;;;;;;0.92;68.36;100096.11;1739111;81;21046;-76
2021/11/23 00:35:22;;;;;;;5.87;4.03;;;;;;;0.88;68.57;100102.27;1741866;81;21077;-75
2021/11/23 00:37:50;;;;;;;14.17;7.37;;;;;;;0.85;68.88;100111.08;1768821;81;21023;-74
2021/11/23 00:40:18;;;;;;;14.73;7.70;;;;;;;0.85;68.96;100113.23;1769147;80;20990;-73
2021/11/23 00:42:46;;;;;;;15.80;8.17;;;;;;;0.87;68.91;100112.53;1717717;81;21886;-74
2021/11/23 00:45:15;;;;;;;17.73;9.47;;;;;;;0.85;68.94;100111.91;1737406;81;21154;-76
2021/11/23 00:47:41;;;;;;;33.70;12.30;;;;;;;0.83;69.01;100113.06;1711495;82;21563;-74
2021/11/23 00:50:08;;;;;;;27.23;11.90;;;;;;;0.73;69.10;100117.27;1747476;81;21070;-74
2021/11/23 00:52:35;;;;;;;23.43;9.57;;;;;;;0.66;69.39;100117.66;1739517;81;21020;-74
2021/11/23 00:55:03;;;;;;;27.30;11.67;;;;;;;0.67;69.35;100111.87;1710343;82;21094;-79
2021/11/23 00:57:29;;;;;;;23.17;10.07;;;;;;;0.71;69.40;100114.49;1704652;82;21469;-80
2021/11/23 00:59:56;;;;;;;17.30;9.20;;;;;;;0.72;69.35;100110.32;1685514;82;21061;-85
2021/11/23 01:02:22;;;;;;;16.40;8.77;;;;;;;0.71;69.27;100118.46;1690281;84;21033;-86
2021/11/23 01:04:50;;;;;;;18.23;10.27;;;;;;;0.65;69.46;100123.95;1705279;84;21036;-79
2021/11/23 01:07:17;;;;;;;18.37;8.90;;;;;;;0.63;69.60;100121.14;1704536;84;21062;-82
2021/11/23 01:09:43;;;;;;;25.80;11.53;;;;;;;0.63;69.66;100120.64;1705881;82;21128;-75
2021/11/23 01:12:09;;;;;;;19.40;10.20;;;;;;;0.66;69.75;100119.48;1704195;84;21562;-73
2021/11/23 01:14:36;;;;;;;16.77;8.70;;;;;;;0.70;69.79;100118.95;1702501;84;20989;-72
2021/11/23 01:17:03;;;;;;;13.37;7.23;;;;;;;0.66;69.77;100120.31;1705897;84;20915;-73
2021/11/23 01:19:30;;;;;;;11.57;6.07;;;;;;;0.60;70.01;100126.80;1704461;82;21030;-73
2021/11/23 01:21:56;;;;;;;5.67;4.17;;;;;;;0.51;70.22;100128.67;1705754;82;21532;-76
2021/11/23 01:24:23;;;;;;;6.53;3.67;;;;;;;0.42;70.28;100130.55;1705326;84;20995;-74
2021/11/23 01:26:49;;;;;;;7.07;5.33;;;;;;;0.32;70.60;100131.25;1703843;82;21052;-75
2021/11/23 01:29:16;;;;;;;4.00;3.17;;;;;;;0.24;70.77;100135.77;1714986;82;21140;-76
2021/11/23 01:31:43;;;;;;;4.47;3.53;;;;;;;0.12;71.21;100133.98;1749891;81;20993;-75
2021/11/23 01:34:11;;;;;;;3.57;3.27;;;;;;;0.14;71.20;100130.69;1756517;81;21527;-78
2021/11/23 01:36:38;;;;;;;6.10;3.87;;;;;;;0.08;71.64;100137.97;1722080;82;21000;-80
2021/11/23 01:39:05;;;;;;;2.50;2.30;;;;;;;0.02;71.81;100136.00;1708731;83;20995;-78
2021/11/23 01:41:31;;;;;;;4.30;3.90;;;;;;;-0.09;72.38;100132.40;1735712;81;21526;-77
2021/11/23 01:43:58;;;;;;;3.07;2.80;;;;;;;-0.18;72.67;100131.61;1713713;83;21012;-85
2021/11/23 01:46:24;;;;;;;5.97;3.60;;;;;;;-0.20;72.70;100137.58;1718439;82;21080;-84
2021/11/23 01:48:50;;;;;;;6.60;3.90;;;;;;;-0.24;72.91;100146.81;1718053;82;21073;-76
2021/11/23 01:51:17;;;;;;;4.63;3.20;;;;;;;-0.30;73.08;100140.08;1739265;81;20981;-75
2021/11/23 01:53:43;;;;;;;4.97;4.47;;;;;;;-0.39;73.42;100141.92;1720590;82;21535;-78
2021/11/23 01:56:10;;;;;;;3.57;3.27;;;;;;;-0.46;73.70;100136.47;1689973;84;21076;-86
2021/11/23 01:58:37;;;;;;;3.90;3.07;;;;;;;-0.52;73.94;100137.13;1682805;83;21103;-86
2021/11/23 02:01:06;;;;;;;3.40;2.97;;;;;;;-0.57;74.20;100136.81;1719292;82;21829;-78
2021/11/23 02:03:34;;;;;;;5.67;3.00;;;;;;;-0.55;74.28;100136.66;1736394;82;21073;-75
2021/11/23 02:06:01;;;;;;;4.27;2.80;;;;;;;-0.52;74.16;100131.02;1737404;82;21072;-74
2021/11/23 02:08:27;;;;;;;3.97;2.87;;;;;;;-0.47;74.06;100132.17;1718201;82;21015;-74
2021/11/23 02:10:55;;;;;;;3.37;2.77;;;;;;;-0.51;74.12;100137.47;1740631;81;21811;-75
2021/11/23 02:13:22;;;;;;;3.07;2.40;;;;;;;-0.50;74.15;100138.30;1736802;82;21020;-74
2021/11/23 02:15:49;;;;;;;5.07;2.57;;;;;;;-0.52;74.22;100130.53;1717207;82;21609;-77
2021/11/23 02:18:21;;;;;;;7.63;3.30;;;;;;;-0.54;74.25;100135.66;1736952;82;21049;-74
2021/11/23 02:20:48;;;;;;;5.70;3.10;;;;;;;-0.55;74.30;100130.88;1719781;81;21672;-73
2021/11/23 02:23:14;;;;;;;7.60;3.33;;;;;;;-0.63;74.43;100139.31;1718094;82;21054;-73
2021/11/23 02:25:41;;;;;;;5.27;3.23;;;;;;;-0.73;74.65;100139.98;1717986;82;21035;-72
2021/11/23 02:28:09;;;;;;;4.63;3.63;;;;;;;-0.75;74.83;100134.84;1713162;82;21495;-72
2021/11/23 02:30:42;;;;;;;4.17;3.27;;;;;;;-0.77;74.95;100142.63;1699454;82;21093;-74
2021/11/23 02:33:08;;;;;;;4.35;3.35;;;;;;;-0.82;74.98;100144.94;1737820;82;21544;-74
2021/11/23 02:35:34;;;;;;;4.03;2.90;;;;;;;-0.81;75.12;100143.43;1715957;82;21078;-73
2021/11/23 02:38:01;;;;;;;4.30;3.33;;;;;;;-0.87;75.19;100147.24;1703736;84;21020;-74
2021/11/23 02:40:27;;;;;;;5.80;4.00;;;;;;;-0.84;75.19;100137.17;1679256;83;21087;-75
2021/11/23 02:42:54;;;;;;;6.07;3.63;;;;;;;-0.79;75.08;100133.54;1678271;83;21655;-71
2021/11/23 02:45:25;;;;;;;5.80;2.73;;;;;;;-0.74;74.98;100134.36;1703925;84;21063;-73
2021/11/23 02:47:54;;;;;;;5.83;3.87;;;;;;;-0.80;74.91;100138.97;1677367;84;21173;-74
2021/11/23 02:50:22;;;;;;;3.77;3.30;;;;;;;-0.79;74.96;100140.14;1677362;84;21045;-74
2021/11/23 02:52:49;;;;;;;5.97;3.93;;;;;;;-0.78;74.89;100140.97;1731582;82;21074;-72
2021/11/23 02:55:17;;;;;;;7.27;4.07;;;;;;;-0.71;74.93;100141.94;1702107;84;21146;-74
2021/11/23 02:57:43;;;;;;;7.53;4.57;;;;;;;-0.65;74.69;100138.15;1704645;84;20982;-73
2021/11/23 03:00:16;;;;;;;7.00;4.93;;;;;;;-0.61;74.57;100138.63;1678351;84;21825;-75
2021/11/23 03:02:44;;;;;;;;;;;;;;;-0.63;74.43;100144.59;1763455;81;20997;-74
2021/11/23 03:05:10;;;;;;;8.53;5.07;;;;;;;-0.64;74.46;100145.09;1769228;81;20143;-73
2021/11/23 03:07:37;;;;;;;12.53;7.10;;;;;;;-0.72;74.54;100141.11;1752398;81;21539;-78
2021/11/23 03:10:05;;;;;;;5.90;4.90;;;;;;;-0.74;74.49;100143.60;1736950;82;21038;-78
2021/11/23 03:12:32;;;;;;;6.33;5.23;;;;;;;-0.72;74.72;100145.59;1715646;82;21183;-74
2021/11/23 03:14:59;;;;;;;5.17;4.43;;;;;;;-0.74;74.76;100150.20;1682127;84;20983;-74
2021/11/23 03:17:27;;;;;;;3.50;3.20;;;;;;;-0.75;74.75;100149.87;1693722;82;21606;-74
2021/11/23 03:19:53;;;;;;;3.07;2.87;;;;;;;-0.73;74.88;100151.86;1723010;82;21509;-74
2021/11/23 03:22:20;;;;;;;5.03;4.60;;;;;;;-0.67;74.67;100147.24;1723043;82;21025;-74
2021/11/23 03:24:47;;;;;;;6.17;4.47;;;;;;;-0.68;74.29;100144.27;1659299;84;21233;-74
2021/11/23 03:27:13;;;;;;;9.10;5.37;;;;;;;-0.67;74.32;100144.08;1703522;82;20946;-73
2021/11/23 03:29:41;;;;;;;7.93;6.17;;;;;;;-0.63;74.25;100144.59;1680852;84;21044;-75
2021/11/23 03:32:08;;;;;;;8.80;7.40;;;;;;;-0.64;74.12;100142.45;1691194;84;21054;-74
2021/11/23 03:34:38;;;;;;;12.23;8.83;;;;;;;-0.66;73.83;100146.23;1756000;81;21098;-74
2021/11/23 03:37:12;;;;;;;15.10;9.83;;;;;;;-0.72;73.94;100151.67;1739727;81;21229;-77
2021/11/23 03:39:38;;;;;;;16.33;9.93;;;;;;;-0.76;74.09;100152.17;1656765;85;21027;-75
2021/11/23 03:42:05;;;;;;;12.23;8.63;;;;;;;-0.82;74.43;100149.73;1686113;82;21477;-74
2021/11/23 03:44:34;;;;;;;10.53;9.50;;;;;;;-0.82;74.51;100148.89;1707386;82;20947;-74
2021/11/23 03:47:02;;;;;;;8.87;7.53;;;;;;;-0.84;74.72;100150.38;1713095;82;21332;-76
2021/11/23 03:49:29;;;;;;;7.23;6.23;;;;;;;-0.87;74.89;100148.08;1738801;82;21062;-72
2021/11/23 03:51:55;;;;;;;8.83;5.63;;;;;;;-0.86;74.99;100148.90;1713284;82;21063;-76
2021/11/23 03:54:23;;;;;;;7.93;5.77;;;;;;;-0.86;75.11;100144.41;1690026;84;21045;-74
2021/11/23 03:56:50;;;;;;;33.43;19.63;;;;;;;-0.85;75.13;100146.56;1708330;84;21026;-75
2021/11/23 03:59:18;;;;;;;12.13;7.63;;;;;;;-0.86;75.18;100140.45;1714446;82;21130;-75
2021/11/23 04:01:45;;;;;;;8.37;6.20;;;;;;;-0.93;74.92;100136.35;1709211;82;21207;-76
2021/11/23 04:04:12;;;;;;;7.30;5.53;;;;;;;-0.94;74.87;100139.97;1729335;82;21002;-76
2021/11/23 04:06:38;;;;;;;8.23;4.93;;;;;;;-0.94;74.70;100140.47;1683330;84;21001;-77
2021/11/23 04:09:05;;;;;;;11.30;5.03;;;;;;;-0.90;74.60;100145.74;1685512;84;21047;-76
2021/11/23 04:11:31;;;;;;;7.93;5.90;;;;;;;-0.85;74.49;100140.80;1737182;82;21658;-72
2021/11/23 04:13:58;;;;;;;9.93;6.00;;;;;;;-0.86;74.34;100136.50;1711323;82;21215;-73
2021/11/23 04:16:24;;;;;;;14.97;8.37;;;;;;;-0.97;74.27;100135.53;1709368;82;21010;-72
2021/11/23 04:18:52;;;;;;;10.17;6.60;;;;;;;-1.06;74.37;100138.66;1682663;84;21026;-74
2021/11/23 04:21:19;;;;;;;9.70;7.27;;;;;;;-1.08;74.65;100134.52;1743011;81;21621;-71
2021/11/23 04:23:45;;;;;;;10.83;7.27;;;;;;;-1.15;74.59;100134.86;1697757;83;21508;-75
2021/11/23 04:26:13;;;;;;;7.40;5.73;;;;;;;-1.18;74.66;100140.45;1709523;82;20991;-76
2021/11/23 04:28:40;;;;;;;6.37;4.67;;;;;;;-1.18;74.43;100142.59;1709229;82;20955;-73
2021/11/23 04:31:06;;;;;;;7.43;4.67;;;;;;;-1.17;74.43;100150.02;1682936;84;20990;-73
2021/11/23 04:33:34;;;;;;;5.37;4.00;;;;;;;-1.20;74.48;100149.04;1678266;84;21457;-73
2021/11/23 04:36:04;;;;;;;9.60;3.93;;;;;;;-1.30;74.80;100147.04;1678937;84;21041;-73
2021/11/23 04:38:30;;;;;;;5.00;3.90;;;;;;;-1.36;74.64;100144.55;1690743;84;21798;-73
2021/11/23 04:40:57;;;;;;;5.03;2.80;;;;;;;-1.36;74.48;100140.11;1705031;84;21026;-72
2021/11/23 04:43:23;;;;;;;5.13;3.63;;;;;;;-1.36;74.47;100137.47;1705164;82;20987;-72
2021/11/23 04:45:49;;;;;;;5.60;3.67;;;;;;;-1.31;74.40;100129.06;1654668;84;21070;-71
2021/11/23 04:48:16;;;;;;;6.37;4.00;;;;;;;-1.36;74.06;100128.23;1688780;82;21515;-71
2021/11/23 04:50:42;;;;;;;8.33;5.77;;;;;;;-1.34;74.04;100122.77;1731981;82;21116;-75
2021/11/23 04:53:09;;;;;;;5.77;3.50;;;;;;;-1.30;73.97;100130.72;1679130;84;21176;-75
2021/11/23 04:55:35;;;;;;;4.50;3.07;;;;;;;-1.29;73.94;100131.03;1703656;84;21016;-75
2021/11/23 04:58:02;;;;;;;4.50;2.97;;;;;;;-1.24;73.97;100130.53;1685370;82;21001;-75
2021/11/23 05:00:28;;;;;;;3.93;3.33;;;;;;;-1.19;73.76;100130.38;1734555;82;21038;-76
2021/11/23 05:02:55;;;;;;;3.77;3.00;;;;;;;-1.18;73.45;100124.61;1697099;84;21090;-77
2021/11/23 05:05:21;;;;;;;19.00;13.67;;;;;;;-1.13;73.32;100117.03;1677498;84;21028;-76
2021/11/23 05:07:48;;;;;;;14.77;7.83;;;;;;;-1.17;73.02;100119.19;1704506;82;21003;-76
2021/11/23 05:10:15;;;;;;;6.37;4.50;;;;;;;-1.29;73.19;100119.16;1704818;84;20960;-77
2021/11/23 05:12:42;;;;;;;4.50;3.80;;;;;;;-1.41;73.53;100117.83;1704883;82;21540;-76
2021/11/23 05:15:09;;;;;;;6.03;4.43;;;;;;;-1.44;73.69;100116.84;1703646;84;20990;-76
2021/11/23 05:17:37;;;;;;;3.87;3.50;;;;;;;-1.39;73.72;100124.58;1713985;81;21559;-75
2021/11/23 05:20:09;;;;;;;4.17;3.37;;;;;;;-1.34;73.71;100115.69;1709443;82;21083;-77
2021/11/23 05:22:37;;;;;;;5.90;4.07;;;;;;;-1.38;73.79;100121.45;1729086;82;21083;-75
2021/11/23 05:25:05;;;;;;;4.63;4.13;;;;;;;-1.38;73.90;100123.60;1677522;84;21070;-77
2021/11/23 05:27:32;;;;;;;7.67;4.93;;;;;;;-1.37;73.97;100125.75;1688156;84;21071;-78
2021/11/23 05:29:59;;;;;;;5.63;4.00;;;;;;;-1.39;74.06;100123.78;1714881;82;20972;-74
2021/11/23 05:32:28;;;;;;;6.50;5.93;;;;;;;-1.43;74.20;100125.07;1742521;82;20995;-74
2021/11/23 05:34:54;;;;;;;7.13;5.90;;;;;;;-1.38;74.27;100134.64;1747131;81;20981;-75
2021/11/23 05:37:21;;;;;;;10.40;7.37;;;;;;;-1.37;74.21;100129.22;1738571;82;21068;-74
2021/11/23 05:39:47;;;;;;;12.20;6.90;;;;;;;-1.35;74.16;100129.89;1741471;81;21217;-75
2021/11/23 05:42:13;;;;;;;17.50;9.33;;;;;;;-1.29;74.11;100138.15;1719330;82;21037;-80
2021/11/23 05:44:40;;;;;;;15.67;9.97;;;;;;;-1.31;74.06;100139.62;1737436;82;21082;-79
2021/11/23 05:47:06;;;;;;;13.60;10.37;;;;;;;-1.34;73.97;100135.47;1737713;82;21584;-79
2021/11/23 05:49:33;;;;;;;14.33;10.40;;;;;;;-1.39;74.00;100136.45;1710748;82;21084;-77
2021/11/23 05:52:00;;;;;;;9.93;8.30;;;;;;;-1.37;74.05;100147.68;1711236;82;21021;-76
2021/11/23 05:54:26;;;;;;;14.80;9.17;;;;;;;-1.33;74.11;100146.37;1735693;82;21013;-76
2021/11/23 05:56:53;;;;;;;12.07;8.30;;;;;;;-1.26;74.04;100154.95;1736867;81;21053;-75
2021/11/23 05:59:20;;;;;;;12.87;9.33;;;;;;;-1.23;73.87;100149.34;1706135;82;21016;-77
2021/11/23 06:01:46;;;;;;;15.57;9.47;;;;;;;-1.23;73.77;100154.63;1746535;81;21096;-75
2021/11/23 06:04:12;;;;;;;16.47;11.27;;;;;;;-1.26;73.75;100158.42;1747084;81;21188;-76
2021/11/23 06:06:41;;;;;;;15.47;10.97;;;;;;;-1.27;73.71;100163.86;1747557;81;20953;-79
2021/11/23 06:09:07;;;;;;;19.80;11.30;;;;;;;-1.30;73.54;100176.89;1732375;81;21037;-76
2021/11/23 06:11:34;;;;;;;23.80;14.30;;;;;;;-1.34;73.88;100181.64;1735657;82;21341;-77
2021/11/23 06:14:00;;;;;;;19.70;12.47;;;;;;;-1.38;74.41;100179.00;1736461;82;21060;-77
2021/11/23 06:16:28;;;;;;;25.83;12.53;;;;;;;-1.45;74.69;100181.97;1747548;81;21284;-76
2021/11/23 06:18:56;;;;;;;23.67;18.47;;;;;;;-1.44;74.96;100189.39;1735797;82;21037;-75
2021/11/23 06:21:23;;;;;;;31.47;21.10;;;;;;;-1.45;75.27;100195.16;1718119;82;21000;-76
2021/11/23 06:23:49;;;;;;;30.33;18.00;;;;;;;-1.45;75.40;100199.59;1713415;82;21610;-77
2021/11/23 06:26:19;;;;;;;22.33;15.60;;;;;;;-1.41;75.54;100207.52;1667179;85;21091;-75
2021/11/23 06:28:46;;;;;;;15.63;11.27;;;;;;;-1.27;75.48;100206.90;1701370;82;21960;-75
2021/11/23 06:31:13;;;;;;;23.07;9.77;;;;;;;-1.18;75.17;100217.80;1711433;82;21001;-76
2021/11/23 06:33:39;;;;;;;22.83;14.30;;;;;;;-1.19;75.13;100217.95;1751503;80;21001;-80
2021/11/23 06:36:06;;;;;;;16.10;10.23;;;;;;;-1.22;75.33;100214.33;1729850;82;21065;-81
2021/11/23 06:38:33;;;;;;;12.47;7.43;;;;;;;-1.19;75.49;100219.28;1716614;82;21597;-82
2021/11/23 06:41:00;;;;;;;8.93;5.87;;;;;;;-1.21;75.18;100215.98;1718545;82;21310;-80
2021/11/23 06:43:27;;;;;;;12.67;6.93;;;;;;;-1.20;74.83;100221.61;1735904;82;21118;-79
2021/11/23 06:45:55;;;;;;;7.50;6.10;;;;;;;-1.20;74.07;100227.68;1735679;82;21022;-75
2021/11/23 06:48:23;;;;;;;11.73;7.37;;;;;;;-1.13;73.97;100225.23;1716622;82;21692;-75
2021/11/23 06:50:50;;;;;;;9.87;7.03;;;;;;;-1.06;73.90;100227.09;1716578;82;21065;-75
2021/11/23 06:53:16;;;;;;;9.07;6.73;;;;;;;-0.99;73.80;100225.92;1736069;82;21234;-80
2021/11/23 06:55:44;;;;;;;12.97;6.13;;;;;;;-0.93;73.67;100224.79;1735988;82;20947;-79
2021/11/23 06:58:11;;;;;;;15.53;9.50;;;;;;;-0.86;73.09;100225.47;1735750;82;21009;-78
2021/11/23 07:00:39;;;;;;;16.23;7.97;;;;;;;-0.86;72.35;100228.91;1718341;82;21017;-79
2021/11/23 07:03:05;;;;;;;31.00;10.87;;;;;;;-0.84;71.54;100227.43;1683626;82;21139;-78
2021/11/23 07:05:32;;;;;;;19.53;10.60;;;;;;;-0.87;71.20;100230.41;1737803;82;21106;-83
2021/11/23 07:07:58;;;;;;;27.40;17.07;;;;;;;-0.84;71.46;100229.58;1738102;82;21017;-79
2021/11/23 07:10:25;;;;;;;24.27;14.77;;;;;;;-0.79;71.33;100229.09;1737834;82;21021;-79
2021/11/23 07:12:52;;;;;;;25.90;14.73;;;;;;;-0.81;71.45;100225.28;1737088;82;21053;-80
2021/11/23 07:15:19;;;;;;;24.00;14.27;;;;;;;-0.75;71.50;100225.95;1733828;82;21210;-78
2021/11/23 07:17:46;;;;;;;30.40;20.60;;;;;;;-0.70;71.61;100224.14;1694295;83;21047;-77
2021/11/23 07:20:13;;;;;;;25.67;16.80;;;;;;;-0.67;71.62;100229.91;1721211;82;21065;-77
2021/11/23 07:22:39;;;;;;;34.47;21.17;;;;;;;-0.63;71.66;100231.76;1717420;82;21005;-76
2021/11/23 07:25:09;;;;;;;32.13;21.77;;;;;;;-0.62;71.78;100229.42;1718155;82;21049;-77
2021/11/23 07:27:35;;;;;;;38.07;23.37;;;;;;;-0.60;71.90;100230.92;1715310;82;21080;-78
2021/11/23 07:30:03;;;;;;;35.50;24.13;;;;;;;-0.53;71.90;100233.74;1735853;82;21202;-77
2021/11/23 07:32:31;;;;;;;62.53;33.53;;;;;;;-0.47;71.69;100231.73;1743161;81;20975;-76
2021/11/23 07:34:57;;;;;;;60.47;34.77;;;;;;;-0.43;71.44;100234.38;1745598;81;21000;-77
2021/11/23 07:37:26;;;;;;;62.43;34.97;;;;;;;-0.38;71.03;100237.87;1718836;82;21081;-76
2021/11/23 07:39:52;;;;;;;46.60;26.37;;;;;;;-0.40;71.00;100233.23;1696888;83;21066;-75
2021/11/23 07:42:19;;;;;;;40.17;22.87;;;;;;;-0.35;71.09;100238.36;1702705;82;21375;-75
2021/11/23 07:44:45;;;;;;;37.50;19.63;;;;;;;-0.26;71.17;100240.48;1717622;82;21035;-78
2021/11/23 07:47:11;;;;;;;47.50;24.00;;;;;;;-0.14;71.06;100245.25;1702976;83;20940;-82
2021/11/23 07:49:39;;;;;;;50.30;25.03;;;;;;;-0.12;70.77;100233.20;1692446;83;21465;-78
2021/11/23 07:52:05;;;;;;;34.03;20.87;;;;;;;-0.11;70.84;100232.22;1714364;82;21537;-79
2021/11/23 07:54:33;;;;;;;41.07;21.80;;;;;;;-0.16;70.80;100238.01;1711793;82;21162;-76
2021/11/23 07:56:59;;;;;;;33.83;20.20;;;;;;;-0.16;70.62;100241.97;1711908;82;21084;-76
2021/11/23 07:59:26;;;;;;;35.93;18.87;;;;;;;-0.16;70.43;100236.69;1773420;80;21052;-76
2021/11/23 08:01:53;;;;;;;39.87;20.70;;;;;;;-0.18;70.02;100228.09;1722220;81;21051;-76
2021/11/23 08:04:19;;;;;;;33.27;19.73;;;;;;;-0.24;69.68;100232.70;1740702;80;21076;-77
2021/11/23 08:06:46;;;;;;;28.63;20.30;;;;;;;-0.25;70.16;100226.29;1740610;80;21007;-82
2021/11/23 08:09:12;;;;;;;24.93;16.63;;;;;;;-0.23;70.44;100226.92;1725629;82;20960;-81
2021/11/23 08:11:40;;;;;;;22.20;15.30;;;;;;;-0.20;70.70;100231.41;1714077;82;20928;-77
2021/11/23 08:14:07;;;;;;;31.20;14.90;;;;;;;-0.19;70.52;100234.36;1689121;83;21571;-81
2021/11/23 08:16:35;;;;;;;22.37;15.13;;;;;;;-0.17;70.29;100235.03;1715710;82;20964;-78
2021/11/23 08:19:02;;;;;;;19.57;12.40;;;;;;;-0.14;70.26;100237.33;1739436;81;21084;-77
2021/11/23 08:21:30;;;;;;;19.53;11.70;;;;;;;-0.09;70.10;100236.82;1721059;81;20941;-78
2021/11/23 08:23:57;;;;;;;19.43;11.50;;;;;;;-0.11;69.98;100229.57;1743009;81;21036;-78
2021/11/23 08:26:24;;;;;;;21.00;11.27;;;;;;;-0.17;69.67;100225.77;1743760;82;20922;-77
2021/11/23 08:28:51;;;;;;;25.10;12.50;;;;;;;-0.09;69.84;100219.64;1739600;82;21164;-77
2021/11/23 08:31:18;;;;;;;13.13;9.90;;;;;;;-0.04;69.51;100225.25;1736954;82;21140;-80
2021/11/23 08:33:45;;;;;;;16.37;9.47;;;;;;;0.01;69.16;100221.60;1766661;81;21006;-74
2021/11/23 08:36:12;;;;;;;19.90;10.90;;;;;;;0.06;69.17;100223.73;1696915;81;21099;-77
2021/11/23 08:38:39;;;;;;;22.30;12.93;;;;;;;0.10;69.00;100219.27;1709118;84;21094;-79
2021/11/23 08:41:05;;;;;;;44.60;24.23;;;;;;;0.16;68.88;100220.41;1679475;83;21003;-79
2021/11/23 08:43:32;;;;;;;30.37;15.57;;;;;;;0.23;68.97;100208.17;1669370;84;21595;-78
2021/11/23 08:45:58;;;;;;;29.83;18.13;;;;;;;0.34;68.77;100208.61;1683141;84;21082;-79
2021/11/23 08:48:25;;;;;;;26.47;14.97;;;;;;;0.44;68.47;100209.23;1682333;84;20998;-77
2021/11/23 08:50:51;;;;;;;27.03;14.47;;;;;;;0.53;68.23;100214.52;1711531;82;21012;-77
2021/11/23 08:53:18;;;;;;;25.67;14.47;;;;;;;0.57;67.92;100219.78;1718455;82;21061;-77
2021/11/23 08:55:44;;;;;;;24.37;13.37;;;;;;;0.63;67.94;100216.42;1708176;82;21929;-76
2021/11/23 08:58:13;;;;;;;22.10;13.23;;;;;;;0.71;67.73;100213.75;1718093;82;20962;-77
2021/11/23 09:00:41;;;;;;;25.23;15.37;;;;;;;0.75;67.50;100208.43;1711771;82;21010;-75
2021/11/23 09:03:08;;;;;;;28.30;14.30;;;;;;;0.76;67.27;100208.77;1696759;82;21571;-75
2021/11/23 09:05:37;;;;;;;25.00;14.13;;;;;;;0.69;67.14;100206.47;1679165;84;20999;-78
2021/11/23 09:08:04;;;;;;;22.27;13.67;;;;;;;0.66;67.34;100206.34;1721460;82;21138;-74
2021/11/23 09:10:36;;;;;;;26.03;15.40;;;;;;;0.71;67.49;100208.46;1715853;82;21002;-76
2021/11/23 09:13:03;;;;;;;30.47;15.60;;;;;;;0.80;67.59;100207.41;1687270;83;20962;-76
2021/11/23 09:15:30;;;;;;;26.63;14.37;;;;;;;0.92;67.51;100195.41;1677678;85;20991;-79
2021/11/23 09:17:59;;;;;;;43.17;16.93;;;;;;;0.97;67.39;100197.03;1663580;82;21070;-76
2021/11/23 09:20:25;;;;;;;47.20;20.70;;;;;;;1.02;67.39;100192.03;1685106;82;22096;-77
2021/11/23 09:22:51;;;;;;;45.30;21.53;;;;;;;1.13;67.18;100192.96;1715163;82;21457;-80
2021/11/23 09:25:18;;;;;;;39.03;20.70;;;;;;;1.21;66.96;100192.89;1733593;82;20966;-75
2021/11/23 09:27:44;;;;;;;32.37;18.50;;;;;;;1.20;66.81;100193.09;1674763;83;21507;-76
2021/11/23 09:30:13;;;;;;;48.13;18.47;;;;;;;1.21;66.78;100186.27;1706357;82;21015;-76
2021/11/23 09:32:40;;;;;;;43.57;19.07;;;;;;;1.20;66.84;100193.89;1707281;84;21064;-76
2021/11/23 09:35:11;;;;;;;62.77;25.43;;;;;;;1.23;67.19;100192.23;1701279;84;21681;-76
2021/11/23 09:37:36;;;;;;;56.87;28.97;;;;;;;1.30;66.98;100200.27;1654331;85;21627;-75
2021/11/23 09:40:04;;;;;;;71.77;28.70;;;;;;;1.31;66.57;100194.80;1664980;84;21503;-76
2021/11/23 09:42:31;;;;;;;82.08;34.20;;;;;;;1.29;66.54;100198.65;1671575;84;21109;-76
2021/11/23 09:44:57;;;;;;;73.70;31.90;;;;;;;1.29;66.66;100197.33;1707621;83;21069;-80
2021/11/23 09:47:26;;;;;;;82.20;32.90;;;;;;;1.30;66.68;100185.70;1653899;85;20957;-77
2021/11/23 09:49:55;;;;;;;66.75;28.55;;;;;;;1.32;66.63;100181.06;1685034;82;21066;-76
2021/11/23 09:52:22;;;;;;;73.17;27.62;;;;;;;1.32;66.54;100179.73;1712518;82;20991;-76
2021/11/23 09:54:48;;;;;;;51.98;24.80;;;;;;;1.36;66.67;100170.42;1719851;81;21535;-76
2021/11/23 09:57:15;;;;;;;58.37;27.67;;;;;;;1.42;66.66;100175.02;1694659;81;21783;-76
2021/11/23 09:59:41;;;;;;;52.23;23.75;;;;;;;1.46;66.39;100171.50;1692174;82;21511;-80
2021/11/23 10:02:08;;;;;;;55.12;25.17;;;;;;;1.47;66.28;100167.85;1674319;84;20958;-74
2021/11/23 10:04:37;;;;;;;46.37;23.10;;;;;;;1.48;66.25;100161.55;1763961;81;21035;-76
2021/11/23 10:07:07;;;;;;;39.70;21.12;;;;;;;1.47;66.32;100166.03;1713683;82;21001;-76
2021/11/23 10:09:43;;;;;;;41.02;20.23;;;;;;;1.48;66.33;100162.37;1723188;81;21752;-75
2021/11/23 10:12:21;;;;;;;38.90;22.30;;;;;;;1.51;66.50;100158.53;1718804;81;21524;-82
2021/11/23 10:15:17;;;;;;;40.08;23.32;;;;;;;1.53;66.66;100159.19;1756566;81;21042;-83
2021/11/23 10:17:48;;;;;;;37.15;21.25;;;;;;;1.56;66.63;100161.47;1713444;82;21602;-87
2021/11/23 10:20:36;;;;;;;35.13;18.80;;;;;;;1.59;66.45;100164.58;1712465;82;21113;-84
2021/11/23 10:23:26;;;;;;;30.43;17.92;;;;;;;1.62;66.41;100158.94;1709668;81;20990;-86
2021/11/23 10:26:06;;;;;;;30.60;19.82;;;;;;;1.64;66.43;100151.61;1709887;84;21101;-86
2021/11/23 10:28:33;;;;;;;30.80;18.65;;;;;;;1.64;66.37;100148.95;1701541;82;20943;-76
2021/11/23 10:31:01;;;;;;;33.50;19.98;;;;;;;1.69;66.37;100146.59;1650257;84;20947;-76
2021/11/23 10:33:28;;;;;;;31.23;21.00;;;;;;;1.74;66.47;100147.36;1680435;84;21588;-77
2021/11/23 10:35:58;;;;;;;29.20;19.05;;;;;;;1.75;66.24;100145.87;1701153;83;21912;-78
2021/11/23 10:38:27;;;;;;;42.70;20.68;;;;;;;1.78;66.13;100142.02;1722934;82;21200;-79
2021/11/23 10:40:54;;;;;;;37.50;22.50;;;;;;;1.75;65.98;100137.91;1722801;82;21067;-77
2021/11/23 10:43:21;;;;;;;26.52;17.37;;;;;;;1.78;66.07;100138.53;1723218;82;21477;-80
2021/11/23 10:45:54;;;;;;;36.03;21.93;;;;;;;1.81;66.05;100138.19;1745366;82;21074;-79
2021/11/23 10:48:24;;;;;;;31.68;20.12;;;;;;;1.82;65.91;100128.73;1733952;82;21140;-82
2021/11/23 10:51:10;;;;;;;30.37;17.57;;;;;;;1.84;65.90;100128.53;1642341;86;21018;-80
2021/11/23 10:53:39;;;;;;;29.72;17.10;;;;;;;1.86;65.75;100117.25;1676812;85;21094;-82
2021/11/23 10:56:12;;;;;;;31.48;17.00;;;;;;;1.82;65.80;100113.33;1730234;81;20965;-79
2021/11/23 10:58:41;;;;;;;31.37;18.82;;;;;;;1.83;65.91;100111.80;1710305;83;21023;-79
2021/11/23 11:01:10;;;;;;;33.50;20.60;;;;;;;1.86;66.21;100114.10;1676437;83;21309;-80
2021/11/23 11:03:39;;;;;;;33.42;18.35;;;;;;;1.88;66.19;100109.92;1717925;83;21019;-76
2021/11/23 11:06:05;;;;;;;32.67;17.42;;;;;;;1.84;65.97;100109.47;1722278;81;21520;-83
2021/11/23 11:08:37;;;;;;;29.07;17.23;;;;;;;1.84;65.99;100104.66;1722077;83;21017;-83
2021/11/23 11:11:06;;;;;;;27.17;16.42;;;;;;;1.83;66.00;100109.14;1739663;81;21046;-78
2021/11/23 11:13:34;;;;;;;23.35;16.70;;;;;;;1.83;66.02;100110.97;1737500;81;21034;-79
2021/11/23 11:16:00;;;;;;;21.80;13.40;;;;;;;1.84;66.16;100105.99;1696291;84;21545;-78
2021/11/23 11:18:27;;;;;;;22.65;14.47;;;;;;;1.87;66.21;100106.44;1674113;84;21611;-80
2021/11/23 11:21:03;;;;;;;24.55;13.43;;;;;;;1.90;66.22;100105.27;1629762;87;21535;-80